^^
Datos históricos de la estación: Murcia-Puente Tocinos
Diario Informe para Julio 27, 2019 Unidades:  Métrico    Inglés   Ambas
Diario Semanal Mensual Anual Configurable
  Máximo: Mínimo: Media:
Temperatura: 35.9 °C 25.2 °C 30.5 °C
Punto de rocio: 19.7 °C 5.6 °C 10.8 °C
Humedad: 62% 16% 32%
Velocidad viento: 28.2km/h 0.0km/h 10.5km/h
Racha viento: 46.3km/h - -
Viento- - SW
Presión: 1006.4 hPa 1001.6 hPa -
Precipitación: 0.0 mm    
Historical Graphs
 
 
Tabla de datos para Julio 27, 2019
Hora Temperatura Punto de rocio Presión Viento Velocidad viento Racha viento Humedad Intensidad lluvia(por hora) Nubes
00:04 27.5 °C 19.6 °C 1006.3 hPa North 5.0 km/h 7.4 km/h 62% 0.0 mm CLR
00:09 27.5 °C 19.6 °C 1006.3 hPa NE 4.7 km/h 3.7 km/h 62% 0.0 mm CLR
00:14 27.5 °C 19.6 °C 1006.3 hPa NE 4.7 km/h   62% 0.0 mm CLR
00:19 27.6 °C 19.1 °C 1006.2 hPa Calm   4.7 km/h 60% 0.0 mm CLR
00:24 27.7 °C 18.9 °C 1006.2 hPa Calm   3.9 km/h 59% 0.0 mm CLR
00:29 27.7 °C 19.5 °C 1006.2 hPa NNW 2.3 km/h 5.6 km/h 61% 0.0 mm CLR
00:34 27.7 °C 19.5 °C 1006.2 hPa NW 2.3 km/h 7.4 km/h 61% 0.0 mm CLR
00:39 27.6 °C 19.4 °C 1006.2 hPa NW 3.9 km/h 5.6 km/h 61% 0.0 mm CLR
00:44 27.6 °C 19.7 °C 1006.2 hPa NW 3.9 km/h 5.6 km/h 62% 0.0 mm CLR
00:49 27.5 °C 19.3 °C 1006.3 hPa NW 2.9 km/h   61% 0.0 mm CLR
00:54 27.4 °C 19.5 °C 1006.3 hPa WNW 2.9 km/h 5.6 km/h 62% 0.0 mm CLR
00:59 27.4 °C 19.5 °C 1006.3 hPa WNW 3.2 km/h   62% 0.0 mm CLR
01:04 27.4 °C 19.5 °C 1006.4 hPa WNW 3.2 km/h 3.7 km/h 62% 0.0 mm CLR
01:09 27.5 °C 19.3 °C 1006.4 hPa WNW 2.9 km/h 5.6 km/h 61% 0.0 mm CLR
01:14 27.6 °C 19.1 °C 1006.4 hPa WNW 2.9 km/h 3.2 km/h 60% 0.0 mm CLR
01:19 27.6 °C 18.9 °C 1006.2 hPa WNW 2.3 km/h 3.7 km/h 59% 0.0 mm CLR
01:24 27.7 °C 18.9 °C 1006.2 hPa WNW 2.3 km/h 3.9 km/h 59% 0.0 mm CLR
01:29 27.8 °C 19.1 °C 1006.2 hPa SSW 3.2 km/h 6.4 km/h 59% 0.0 mm CLR
01:34 27.8 °C 19.1 °C 1006.0 hPa South 3.2 km/h 9.3 km/h 59% 0.0 mm CLR
01:39 27.8 °C 19.1 °C 1006.0 hPa South 5.8 km/h 7.4 km/h 59% 0.0 mm CLR
01:44 27.8 °C 19.1 °C 1006.0 hPa SSE 5.8 km/h 8.7 km/h 59% 0.0 mm CLR
01:49 27.8 °C 19.1 °C 1005.9 hPa SSW 5.8 km/h 7.4 km/h 59% 0.0 mm CLR
01:54 27.7 °C 18.9 °C 1005.9 hPa South 5.8 km/h 10.0 km/h 59% 0.0 mm CLR
01:59 27.7 °C 18.9 °C 1005.9 hPa SSE 6.4 km/h 7.4 km/h 59% 0.0 mm CLR
02:04 27.6 °C 18.9 °C 1005.9 hPa SE 6.4 km/h 7.4 km/h 59% 0.0 mm CLR
02:09 27.5 °C 18.8 °C 1005.9 hPa South 5.0 km/h 11.1 km/h 59% 0.0 mm CLR
02:14 27.3 °C 18.6 °C 1005.9 hPa South 5.0 km/h 9.3 km/h 59% 0.0 mm CLR
02:19 27.3 °C 18.6 °C 1005.8 hPa SSW 6.4 km/h 5.6 km/h 59% 0.0 mm CLR
02:24 27.3 °C 18.6 °C 1005.8 hPa South 6.4 km/h 7.6 km/h 59% 0.0 mm CLR
02:29 27.3 °C 18.3 °C 1005.8 hPa SSW 5.8 km/h 7.4 km/h 58% 0.0 mm CLR
02:34 27.3 °C 18.3 °C 1005.8 hPa SSW 5.8 km/h 7.4 km/h 58% 0.0 mm CLR
02:39 27.4 °C 18.4 °C 1005.8 hPa SSW 4.7 km/h 3.7 km/h 58% 0.0 mm CLR
02:44 27.4 °C 18.1 °C 1005.8 hPa WSW 4.7 km/h 5.6 km/h 57% 0.0 mm CLR
02:49 27.4 °C 17.3 °C 1005.8 hPa SSW 3.9 km/h 9.3 km/h 54% 0.0 mm CLR
02:54 27.5 °C 15.2 °C 1005.8 hPa SW 3.9 km/h 13.0 km/h 47% 0.0 mm CLR
02:59 27.7 °C 13.6 °C 1005.8 hPa West 6.4 km/h 13.0 km/h 42% 0.0 mm CLR
03:04 27.9 °C 12.7 °C 1005.7 hPa WSW 6.4 km/h 9.3 km/h 39% 0.0 mm CLR
03:09 28.1 °C 12.1 °C 1005.7 hPa SW 6.9 km/h 9.3 km/h 37% 0.0 mm CLR
03:14 28.2 °C 11.3 °C 1005.7 hPa SW 6.9 km/h 11.1 km/h 35% 0.0 mm CLR
03:19 28.3 °C 10.9 °C 1005.8 hPa SW 6.9 km/h 8.7 km/h 34% 0.0 mm CLR
03:24 28.3 °C 10.9 °C 1005.8 hPa SW 6.9 km/h 7.4 km/h 34% 0.0 mm CLR
03:29 28.3 °C 11.4 °C 1005.8 hPa SSW 5.8 km/h 9.3 km/h 35% 0.0 mm CLR
03:34 28.3 °C 14.2 °C 1005.8 hPa SSW 5.8 km/h 8.7 km/h 42% 0.0 mm CLR
03:39 27.9 °C 14.9 °C 1005.8 hPa SSW 6.9 km/h 7.4 km/h 45% 0.0 mm CLR
03:44 27.7 °C 14.3 °C 1005.8 hPa SW 6.9 km/h 9.5 km/h 44% 0.0 mm CLR
03:49 27.6 °C 14.2 °C 1005.7 hPa SSW 6.4 km/h 9.3 km/h 44% 0.0 mm CLR
03:54 27.6 °C 12.8 °C 1005.7 hPa SW 6.4 km/h 9.3 km/h 40% 0.0 mm CLR
03:59 27.8 °C 13.3 °C 1005.7 hPa SW 6.4 km/h 7.4 km/h 41% 0.0 mm CLR
04:04 27.9 °C 11.9 °C 1005.7 hPa SSW 6.4 km/h 11.1 km/h 37% 0.0 mm CLR
04:09 27.9 °C 11.4 °C 1005.7 hPa WSW 5.0 km/h 7.6 km/h 36% 0.0 mm CLR
04:14 28.0 °C 10.7 °C 1005.7 hPa SW 5.0 km/h 7.4 km/h 34% 0.0 mm CLR
04:19 28.0 °C 10.7 °C 1005.6 hPa WSW 5.8 km/h 5.6 km/h 34% 0.0 mm CLR
04:24 28.0 °C 10.2 °C 1005.6 hPa WNW 5.8 km/h 11.1 km/h 33% 0.0 mm CLR
04:29 27.9 °C 9.7 °C 1005.6 hPa WSW 5.0 km/h 7.4 km/h 32% 0.0 mm CLR
04:34 27.8 °C 9.6 °C 1005.7 hPa West 5.0 km/h 5.6 km/h 32% 0.0 mm CLR
04:39 27.7 °C 9.9 °C 1005.7 hPa SSE 3.2 km/h 3.7 km/h 33% 0.0 mm CLR
04:44 27.7 °C 10.4 °C 1005.7 hPa SSE 3.2 km/h 3.9 km/h 34% 0.0 mm CLR
04:49 27.5 °C 10.2 °C 1005.7 hPa SSE 2.9 km/h 5.8 km/h 34% 0.0 mm CLR
04:54 27.4 °C 11.0 °C 1005.7 hPa SE 2.9 km/h 7.4 km/h 36% 0.0 mm CLR
04:59 27.3 °C 10.9 °C 1005.7 hPa ESE 5.0 km/h 7.4 km/h 36% 0.0 mm CLR
05:04 27.0 °C 11.1 °C 1005.7 hPa SE 5.0 km/h 9.3 km/h 37% 0.0 mm CLR
05:09 26.8 °C 10.9 °C 1005.7 hPa SSE 5.8 km/h 7.6 km/h 37% 0.0 mm CLR
05:14 26.7 °C 10.8 °C 1005.7 hPa SSE 5.8 km/h 11.1 km/h 37% 0.0 mm CLR
05:19 26.6 °C 10.7 °C 1005.8 hPa South 7.6 km/h 9.3 km/h 37% 0.0 mm CLR
05:24 26.6 °C 10.7 °C 1005.8 hPa South 7.6 km/h 9.3 km/h 37% 0.0 mm CLR
05:29 26.5 °C 10.6 °C 1005.8 hPa South 5.8 km/h 7.4 km/h 37% 0.0 mm CLR
05:34 26.4 °C 10.6 °C 1005.9 hPa SSE 5.8 km/h 9.3 km/h 37% 0.0 mm CLR
05:39 26.4 °C 10.6 °C 1005.9 hPa South 6.4 km/h 11.1 km/h 37% 0.0 mm CLR
05:44 26.3 °C 10.8 °C 1005.9 hPa SSW 6.4 km/h 10.0 km/h 38% 0.0 mm CLR
05:49 26.2 °C 10.8 °C 1005.9 hPa SSW 6.4 km/h 7.4 km/h 38% 0.0 mm CLR
05:54 26.2 °C 10.8 °C 1005.9 hPa South 6.4 km/h 7.4 km/h 38% 0.0 mm CLR
05:59 26.2 °C 9.9 °C 1005.9 hPa SSW 6.4 km/h 9.3 km/h 36% 0.0 mm CLR
06:04 26.3 °C 10.1 °C 1005.9 hPa South 6.4 km/h 8.4 km/h 36% 0.0 mm CLR
06:09 26.2 °C 9.9 °C 1005.9 hPa South 5.0 km/h 7.4 km/h 36% 0.0 mm CLR
06:14 26.1 °C 9.4 °C 1005.9 hPa SE 5.0 km/h 9.3 km/h 35% 0.0 mm CLR
06:19 26.0 °C 10.2 °C 1005.9 hPa ESE 5.8 km/h 4.7 km/h 37% 0.0 mm CLR
06:24 25.7 °C 9.9 °C 1005.9 hPa SE 5.8 km/h 9.3 km/h 37% 0.0 mm CLR
06:29 25.4 °C 10.1 °C 1005.9 hPa SE 5.0 km/h 7.4 km/h 38% 0.0 mm CLR
06:34 25.2 °C 9.4 °C 1006.0 hPa SSE 5.0 km/h 11.1 km/h 37% 0.0 mm CLR
06:39 25.2 °C 9.4 °C 1006.0 hPa SSE 5.0 km/h 7.4 km/h 37% 0.0 mm CLR
06:44 25.2 °C 9.1 °C 1006.0 hPa SSE 5.0 km/h 7.4 km/h 36% 0.0 mm CLR
06:49 25.3 °C 8.7 °C 1005.9 hPa SSE 5.8 km/h 5.6 km/h 35% 0.0 mm CLR
06:54 25.3 °C 8.7 °C 1005.9 hPa SE 5.8 km/h 9.5 km/h 35% 0.0 mm CLR
06:59 25.4 °C 8.4 °C 1005.9 hPa SE 6.4 km/h 9.3 km/h 34% 0.0 mm CLR
07:04 25.4 °C 8.4 °C 1005.9 hPa South 6.4 km/h 9.3 km/h 34% 0.0 mm CLR
07:09 25.4 °C 7.9 °C 1005.9 hPa South 6.4 km/h 7.4 km/h 33% 0.0 mm CLR
07:14 25.4 °C 8.4 °C 1005.9 hPa South 6.4 km/h 3.7 km/h 34% 0.0 mm CLR
07:19 25.4 °C 7.9 °C 1006.2 hPa SSW 3.2 km/h 7.4 km/h 33% 0.0 mm CLR
07:24 25.6 °C 8.1 °C 1006.2 hPa SSW 3.2 km/h 9.3 km/h 33% 0.0 mm CLR
07:29 25.7 °C 7.8 °C 1006.2 hPa South 5.8 km/h 8.4 km/h 32% 0.0 mm CLR
07:34 25.8 °C 7.8 °C 1006.0 hPa South 5.8 km/h 11.1 km/h 32% 0.0 mm CLR
07:39 25.8 °C 7.4 °C 1006.0 hPa SSW 7.6 km/h 11.1 km/h 31% 0.0 mm CLR
07:44 25.8 °C 7.4 °C 1006.0 hPa SSW 7.6 km/h 9.3 km/h 31% 0.0 mm CLR
07:49 25.9 °C 7.4 °C 1006.1 hPa SSW 6.9 km/h 11.1 km/h 31% 0.0 mm CLR
07:54 26.1 °C 7.2 °C 1006.1 hPa WSW 6.9 km/h 9.3 km/h 30% 0.0 mm CLR
07:59 26.2 °C 7.2 °C 1006.1 hPa SSW 6.4 km/h 11.1 km/h 30% 0.0 mm CLR
08:04 26.3 °C 7.3 °C 1006.2 hPa SSW 6.4 km/h 9.3 km/h 30% 0.0 mm CLR
08:09 26.3 °C 7.3 °C 1006.2 hPa SSW 6.9 km/h 9.5 km/h 30% 0.0 mm CLR
08:14 26.4 °C 7.4 °C 1006.2 hPa SSW 6.9 km/h 9.3 km/h 30% 0.0 mm CLR
08:19 26.4 °C 7.4 °C 1006.1 hPa SSW 6.9 km/h 9.3 km/h 30% 0.0 mm CLR
08:24 26.4 °C 7.9 °C 1006.1 hPa SSW 6.9 km/h 7.4 km/h 31% 0.0 mm CLR
08:29 26.4 °C 7.9 °C 1006.1 hPa South 5.0 km/h 5.8 km/h 31% 0.0 mm CLR
08:34 26.6 °C 8.1 °C 1006.2 hPa SSW 5.0 km/h 5.6 km/h 31% 0.0 mm CLR
08:39 26.7 °C 8.2 °C 1006.2 hPa SW 5.0 km/h 7.4 km/h 31% 0.0 mm CLR
08:44 26.8 °C 8.3 °C 1006.2 hPa SSW 5.0 km/h 6.4 km/h 31% 0.0 mm CLR
08:49 27.0 °C 7.9 °C 1006.4 hPa SW 5.0 km/h 9.3 km/h 30% 0.0 mm CLR
08:54 27.1 °C 7.6 °C 1006.4 hPa SW 5.0 km/h 13.0 km/h 29% 0.0 mm CLR
08:59 27.1 °C 7.6 °C 1006.4 hPa South 9.5 km/h 13.7 km/h 29% 0.0 mm CLR
09:04 27.1 °C 7.6 °C 1006.2 hPa SSW 9.5 km/h 13.0 km/h 29% 0.0 mm CLR
09:09 27.3 °C 7.7 °C 1006.2 hPa SSW 8.4 km/h 9.5 km/h 29% 0.0 mm CLR
09:14 27.4 °C 7.3 °C 1006.2 hPa SW 8.4 km/h 9.3 km/h 28% 0.0 mm CLR
09:19 27.7 °C 7.6 °C 1006.3 hPa SW 6.4 km/h 7.4 km/h 28% 0.0 mm CLR
09:24 27.8 °C 7.6 °C 1006.3 hPa WNW 6.4 km/h 5.6 km/h 28% 0.0 mm CLR
09:29 28.1 °C 7.9 °C 1006.3 hPa WSW 3.9 km/h 9.3 km/h 28% 0.0 mm CLR
09:34 28.1 °C 7.9 °C 1006.3 hPa SW 3.9 km/h 11.1 km/h 28% 0.0 mm CLR
09:39 28.1 °C 7.9 °C 1006.3 hPa SSW 5.8 km/h 3.7 km/h 28% 0.0 mm CLR
09:44 28.4 °C 7.6 °C 1006.3 hPa WSW 5.8 km/h 7.6 km/h 27% 0.0 mm CLR
09:49 28.5 °C 8.2 °C 1006.3 hPa SW 3.9 km/h 5.6 km/h 28% 0.0 mm CLR
09:54 28.6 °C 8.8 °C 1006.3 hPa NNW 3.9 km/h 7.4 km/h 29% 0.0 mm CLR
09:59 28.9 °C 8.0 °C 1006.3 hPa West 5.8 km/h 18.3 km/h 27% 0.0 mm CLR
10:04 29.1 °C 7.6 °C 1006.3 hPa West 5.8 km/h 13.0 km/h 26% 0.0 mm CLR
10:09 29.2 °C 7.2 °C 1006.3 hPa WNW 11.9 km/h 20.1 km/h 25% 0.0 mm CLR
10:14 29.3 °C 7.8 °C 1006.3 hPa WNW 11.9 km/h 14.8 km/h 26% 0.0 mm CLR
10:19 29.4 °C 7.3 °C 1006.2 hPa WNW 11.1 km/h 18.5 km/h 25% 0.0 mm CLR
10:24 29.4 °C 7.3 °C 1006.2 hPa NNE 11.1 km/h 13.0 km/h 25% 0.0 mm CLR
10:29 29.5 °C 7.4 °C 1006.2 hPa West 11.1 km/h 14.8 km/h 25% 0.0 mm CLR
10:34 29.7 °C 7.6 °C 1006.1 hPa West 11.1 km/h 8.7 km/h 25% 0.0 mm CLR
10:39 29.8 °C 7.7 °C 1006.1 hPa WNW 5.8 km/h 9.3 km/h 25% 0.0 mm CLR
10:44 29.9 °C 7.1 °C 1006.1 hPa WSW 5.8 km/h 11.1 km/h 24% 0.0 mm CLR
10:49 29.9 °C 7.1 °C 1005.8 hPa WSW 6.4 km/h 11.1 km/h 24% 0.0 mm CLR
10:54 30.2 °C 7.4 °C 1005.8 hPa WSW 6.4 km/h 7.6 km/h 24% 0.0 mm CLR
10:59 30.3 °C 7.5 °C 1005.8 hPa South 5.8 km/h 9.3 km/h 24% 0.0 mm CLR
11:04 30.4 °C 7.6 °C 1005.6 hPa West 5.8 km/h 14.0 km/h 24% 0.0 mm CLR
11:09 30.5 °C 7.7 °C 1005.6 hPa SW 7.6 km/h 11.1 km/h 24% 0.0 mm CLR
11:14 30.5 °C 7.0 °C 1005.6 hPa WSW 7.6 km/h 19.8 km/h 23% 0.0 mm CLR
11:19 30.6 °C 7.1 °C 1005.4 hPa WNW 8.4 km/h 14.8 km/h 23% 0.0 mm CLR
11:24 30.8 °C 7.3 °C 1005.4 hPa South 8.4 km/h 14.8 km/h 23% 0.0 mm CLR
11:29 30.9 °C 7.3 °C 1005.4 hPa WSW 8.4 km/h 14.8 km/h 23% 0.0 mm CLR
11:34 30.9 °C 6.7 °C 1005.4 hPa SW 8.4 km/h 16.7 km/h 22% 0.0 mm CLR
11:39 30.9 °C 6.7 °C 1005.4 hPa WSW 10.3 km/h 20.4 km/h 22% 0.0 mm CLR
11:44 30.9 °C 6.7 °C 1005.4 hPa West 10.3 km/h 16.7 km/h 22% 0.0 mm CLR
11:49 31.0 °C 6.8 °C 1005.3 hPa WSW 10.0 km/h 14.8 km/h 22% 0.0 mm CLR
11:54 31.1 °C 6.9 °C 1005.3 hPa West 10.0 km/h 11.1 km/h 22% 0.0 mm CLR
11:59 31.2 °C 6.9 °C 1005.3 hPa West 8.4 km/h 11.1 km/h 22% 0.0 mm CLR
12:04 31.4 °C 6.4 °C 1005.3 hPa West 8.4 km/h 20.4 km/h 21% 0.0 mm CLR
12:09 31.3 °C 6.3 °C 1005.3 hPa WNW 10.0 km/h 16.7 km/h 21% 0.0 mm CLR
12:14 31.3 °C 6.3 °C 1005.3 hPa SSW 10.0 km/h 14.8 km/h 21% 0.0 mm CLR
12:19 31.2 °C 6.3 °C 1005.3 hPa East 10.3 km/h 7.6 km/h 21% 0.0 mm CLR
12:24 31.4 °C 6.4 °C 1005.3 hPa East 10.3 km/h 5.6 km/h 21% 0.0 mm CLR
12:29 31.9 °C 6.8 °C 1005.3 hPa SE 5.0 km/h 9.3 km/h 21% 0.0 mm CLR
12:34 32.3 °C 7.2 °C 1005.1 hPa South 5.0 km/h 13.0 km/h 21% 0.0 mm CLR
12:39 32.3 °C 7.2 °C 1005.1 hPa ESE 7.6 km/h 14.8 km/h 21% 0.0 mm CLR
12:44 32.3 °C 7.2 °C 1005.1 hPa NE 7.6 km/h 14.8 km/h 21% 0.0 mm CLR
12:49 32.3 °C 7.2 °C 1005.0 hPa SE 8.7 km/h 14.8 km/h 21% 0.0 mm CLR
12:54 32.3 °C 7.2 °C 1005.0 hPa SSE 8.7 km/h 12.2 km/h 21% 0.0 mm CLR
12:59 32.4 °C 7.3 °C 1005.0 hPa SSE 8.4 km/h 13.0 km/h 21% 0.0 mm CLR
13:04 32.5 °C 6.6 °C 1004.7 hPa SE 8.4 km/h 9.3 km/h 20% 0.0 mm CLR
13:09 32.6 °C 6.7 °C 1004.7 hPa SSE 10.3 km/h 20.4 km/h 20% 0.0 mm CLR
13:14 32.5 °C 6.6 °C 1004.7 hPa South 10.3 km/h 12.2 km/h 20% 0.0 mm CLR
13:19 32.7 °C 6.8 °C 1004.4 hPa WNW 10.3 km/h 11.1 km/h 20% 0.0 mm CLR
13:24 32.9 °C 6.9 °C 1004.4 hPa NE 10.3 km/h 6.9 km/h 20% 0.0 mm CLR
13:29 33.2 °C 7.2 °C 1004.4 hPa WSW 4.7 km/h 11.1 km/h 20% 0.0 mm CLR
13:34 33.0 °C 7.1 °C 1004.2 hPa ESE 4.7 km/h 11.1 km/h 20% 0.0 mm CLR
13:39 33.1 °C 6.4 °C 1004.2 hPa South 6.9 km/h 11.1 km/h 19% 0.0 mm CLR
13:44 33.5 °C 7.4 °C 1004.2 hPa SSW 6.9 km/h 11.1 km/h 20% 0.0 mm CLR
13:49 33.6 °C 6.8 °C 1004.0 hPa NNE 7.6 km/h 11.1 km/h 19% 0.0 mm CLR
13:54 33.7 °C 6.9 °C 1004.0 hPa West 7.6 km/h 11.1 km/h 19% 0.0 mm CLR
13:59 33.7 °C 6.9 °C 1004.0 hPa North 6.9 km/h 9.3 km/h 19% 0.0 mm CLR
14:04 33.8 °C 6.9 °C 1003.6 hPa South 6.9 km/h 13.7 km/h 19% 0.0 mm CLR
14:09 33.8 °C 6.2 °C 1003.6 hPa WNW 6.9 km/h 18.0 km/h 18% 0.0 mm CLR
14:14 33.8 °C 6.9 °C 1003.6 hPa NE 6.9 km/h 9.3 km/h 19% 0.0 mm CLR
14:19 33.8 °C 6.2 °C 1003.5 hPa WSW 8.4 km/h 13.0 km/h 18% 0.0 mm CLR
14:24 34.2 °C 6.5 °C 1003.5 hPa SW 8.4 km/h 16.7 km/h 18% 0.0 mm CLR
14:29 34.3 °C 5.7 °C 1003.5 hPa ESE 8.7 km/h 18.5 km/h 17% 0.0 mm CLR
14:34 34.3 °C 6.6 °C 1003.4 hPa NNE 8.7 km/h 4.7 km/h 18% 0.0 mm CLR
14:39 34.7 °C 6.1 °C 1003.4 hPa SSW 6.9 km/h 18.5 km/h 17% 0.0 mm CLR
14:44 34.8 °C 6.2 °C 1003.4 hPa South 6.9 km/h 16.7 km/h 17% 0.0 mm CLR
14:49 34.8 °C 6.2 °C 1003.1 hPa South 10.3 km/h 14.0 km/h 17% 0.0 mm CLR
14:54 34.9 °C 6.2 °C 1003.1 hPa SSW 10.3 km/h 21.7 km/h 17% 0.0 mm CLR
14:59 34.9 °C 6.2 °C 1003.1 hPa West 11.9 km/h 9.3 km/h 17% 0.0 mm CLR
15:04 35.2 °C 5.6 °C 1002.9 hPa SSE 11.9 km/h 19.0 km/h 16% 0.0 mm CLR
15:09 35.3 °C 6.6 °C 1002.9 hPa SSW 10.0 km/h 14.8 km/h 17% 0.0 mm CLR
15:14 35.7 °C 6.0 °C 1002.9 hPa SSW 10.0 km/h 13.7 km/h 16% 0.0 mm CLR
15:19 35.9 °C 6.2 °C 1002.8 hPa SW 7.6 km/h 14.8 km/h 16% 0.0 mm CLR
15:24 35.8 °C 6.1 °C 1002.8 hPa SW 7.6 km/h 14.8 km/h 16% 0.0 mm CLR
15:29 35.9 °C 6.2 °C 1002.8 hPa NE 8.7 km/h 16.7 km/h 16% 0.0 mm CLR
15:34 35.8 °C 6.1 °C 1002.6 hPa NE 8.7 km/h 18.5 km/h 16% 0.0 mm CLR
15:39 35.7 °C 6.0 °C 1002.6 hPa NE 10.0 km/h 11.1 km/h 16% 0.0 mm CLR
15:44 35.6 °C 5.9 °C 1002.6 hPa NW 10.0 km/h 25.9 km/h 16% 0.0 mm CLR
15:49 35.6 °C 6.8 °C 1002.5 hPa NNW 11.1 km/h 16.7 km/h 17% 0.0 mm CLR
15:54 35.4 °C 7.4 °C 1002.5 hPa NNW 11.1 km/h 14.8 km/h 18% 0.0 mm CLR
15:59 35.3 °C 9.7 °C 1002.5 hPa NW 10.3 km/h 18.5 km/h 21% 0.0 mm CLR
16:04 35.0 °C 10.8 °C 1002.4 hPa NW 10.3 km/h 24.1 km/h 23% 0.0 mm CLR
16:09 34.9 °C 11.3 °C 1002.4 hPa West 13.7 km/h 20.4 km/h 24% 0.0 mm CLR
16:14 34.8 °C 11.2 °C 1002.4 hPa North 13.7 km/h 22.2 km/h 24% 0.0 mm CLR
16:19 34.8 °C 11.2 °C 1002.2 hPa North 16.4 km/h 33.3 km/h 24% 0.0 mm CLR
16:24 34.8 °C 11.9 °C 1002.2 hPa NNW 16.4 km/h 35.2 km/h 25% 0.0 mm CLR
16:29 35.1 °C 11.5 °C 1002.2 hPa NW 16.1 km/h 18.5 km/h 24% 0.0 mm CLR
16:34 35.1 °C 11.5 °C 1002.0 hPa NW 16.1 km/h 25.9 km/h 24% 0.0 mm CLR
16:39 35.0 °C 12.1 °C 1002.0 hPa NNW 13.7 km/h 27.8 km/h 25% 0.0 mm CLR
16:44 35.2 °C 11.6 °C 1002.0 hPa NW 13.7 km/h 14.8 km/h 24% 0.0 mm CLR
16:49 35.4 °C 11.8 °C 1001.9 hPa WNW 13.7 km/h 23.3 km/h 24% 0.0 mm CLR
16:54 35.3 °C 11.7 °C 1001.9 hPa WNW 13.7 km/h 44.4 km/h 24% 0.0 mm CLR
16:59 35.2 °C 11.6 °C 1001.9 hPa WNW 25.1 km/h 27.8 km/h 24% 0.0 mm CLR
17:04 35.4 °C 11.8 °C 1001.8 hPa WNW 25.1 km/h 27.8 km/h 24% 0.0 mm CLR
17:09 35.3 °C 11.7 °C 1001.8 hPa West 18.0 km/h 35.2 km/h 24% 0.0 mm CLR
17:14 35.1 °C 11.5 °C 1001.8 hPa West 18.0 km/h 40.7 km/h 24% 0.0 mm CLR
17:19 35.1 °C 12.1 °C 1001.7 hPa West 23.3 km/h 31.5 km/h 25% 0.0 mm CLR
17:24 35.3 °C 11.7 °C 1001.7 hPa WNW 23.3 km/h 27.8 km/h 24% 0.0 mm CLR
17:29 35.3 °C 11.7 °C 1001.7 hPa WNW 22.5 km/h 38.9 km/h 24% 0.0 mm CLR
17:34 35.2 °C 12.2 °C 1001.6 hPa WNW 22.5 km/h 27.8 km/h 25% 0.0 mm CLR
17:39 35.2 °C 11.6 °C 1001.6 hPa West 24.5 km/h 33.3 km/h 24% 0.0 mm CLR
17:44 35.2 °C 11.6 °C 1001.6 hPa WNW 24.5 km/h 35.2 km/h 24% 0.0 mm CLR
17:49 35.3 °C 11.7 °C 1001.7 hPa WNW 21.7 km/h 37.0 km/h 24% 0.0 mm CLR
17:54 35.1 °C 11.5 °C 1001.7 hPa NW 21.7 km/h 35.9 km/h 24% 0.0 mm CLR
17:59 35.1 °C 11.5 °C 1001.7 hPa WNW 23.3 km/h 33.3 km/h 24% 0.0 mm CLR
18:04 35.2 °C 11.6 °C 1001.8 hPa WNW 23.3 km/h 33.5 km/h 24% 0.0 mm CLR
18:09 34.9 °C 11.9 °C 1001.8 hPa NW 22.0 km/h 25.9 km/h 25% 0.0 mm CLR
18:14 34.9 °C 11.3 °C 1001.8 hPa NW 22.0 km/h 40.7 km/h 24% 0.0 mm CLR
18:19 34.7 °C 11.2 °C 1001.8 hPa WNW 23.3 km/h 35.9 km/h 24% 0.0 mm CLR
18:24 34.4 °C 10.9 °C 1001.8 hPa NW 23.3 km/h 44.4 km/h 24% 0.0 mm CLR
18:29 34.4 °C 10.9 °C 1001.8 hPa WNW 28.2 km/h 38.9 km/h 24% 0.0 mm CLR
18:34 34.4 °C 10.9 °C 1002.0 hPa WNW 28.2 km/h 46.3 km/h 24% 0.0 mm CLR
18:39 34.4 °C 11.6 °C 1002.0 hPa WNW 26.2 km/h 33.3 km/h 25% 0.0 mm CLR
18:44 34.4 °C 10.9 °C 1002.0 hPa WNW 26.2 km/h 44.4 km/h 24% 0.0 mm CLR
18:49 34.6 °C 11.1 °C 1001.9 hPa WNW 22.0 km/h 35.2 km/h 24% 0.0 mm CLR
18:54 34.4 °C 10.9 °C 1001.9 hPa WNW 22.0 km/h 38.9 km/h 24% 0.0 mm CLR
18:59 34.4 °C 10.3 °C 1001.9 hPa West 25.1 km/h 46.3 km/h 23% 0.0 mm CLR
19:04 34.4 °C 10.9 °C 1001.9 hPa NW 25.1 km/h 29.6 km/h 24% 0.0 mm CLR
19:09 34.3 °C 10.8 °C 1001.9 hPa West 26.2 km/h 42.6 km/h 24% 0.0 mm CLR
19:14 34.2 °C 10.7 °C 1001.9 hPa West 26.2 km/h 42.6 km/h 24% 0.0 mm CLR
19:19 34.1 °C 10.7 °C 1002.1 hPa WNW 28.2 km/h 40.7 km/h 24% 0.0 mm CLR
19:24 34.1 °C 10.7 °C 1002.1 hPa NW 28.2 km/h 29.6 km/h 24% 0.0 mm CLR
19:29 34.2 °C 10.7 °C 1002.1 hPa West 23.7 km/h 22.5 km/h 24% 0.0 mm CLR
19:34 34.3 °C 10.8 °C 1002.3 hPa NW 23.7 km/h 29.6 km/h 24% 0.0 mm CLR
19:39 34.3 °C 10.8 °C 1002.3 hPa NW 18.3 km/h 29.6 km/h 24% 0.0 mm CLR
19:44 34.1 °C 11.3 °C 1002.3 hPa West 18.3 km/h 33.3 km/h 25% 0.0 mm CLR
19:49 34.1 °C 11.3 °C 1002.4 hPa WSW 20.1 km/h 29.6 km/h 25% 0.0 mm CLR
19:54 34.1 °C 11.3 °C 1002.4 hPa WNW 20.1 km/h 33.3 km/h 25% 0.0 mm CLR
19:59 34.0 °C 11.2 °C 1002.4 hPa WNW 17.2 km/h 31.5 km/h 25% 0.0 mm CLR
20:04 33.8 °C 11.6 °C 1002.6 hPa West 17.2 km/h 29.8 km/h 26% 0.0 mm CLR
20:09 33.7 °C 11.6 °C 1002.6 hPa West 19.0 km/h 29.6 km/h 26% 0.0 mm CLR
20:14 33.5 °C 11.4 °C 1002.6 hPa West 19.0 km/h 30.6 km/h 26% 0.0 mm CLR
20:19 33.5 °C 11.4 °C 1002.7 hPa NW 23.3 km/h 33.3 km/h 26% 0.0 mm CLR
20:24 33.5 °C 11.4 °C 1002.7 hPa NW 23.3 km/h 37.0 km/h 26% 0.0 mm CLR
20:29 33.4 °C 11.8 °C 1002.7 hPa West 19.8 km/h 25.9 km/h 27% 0.0 mm CLR
20:34 33.4 °C 11.8 °C 1002.9 hPa West 19.8 km/h 24.1 km/h 27% 0.0 mm CLR
20:39 33.3 °C 11.8 °C 1002.9 hPa WSW 17.2 km/h 22.2 km/h 27% 0.0 mm CLR
20:44 33.2 °C 11.7 °C 1002.9 hPa West 17.2 km/h 33.3 km/h 27% 0.0 mm CLR
20:49 33.1 °C 12.2 °C 1003.0 hPa West 18.3 km/h 31.5 km/h 28% 0.0 mm CLR
20:54 32.9 °C 12.0 °C 1003.0 hPa WNW 18.3 km/h 22.0 km/h 28% 0.0 mm CLR
20:59 32.8 °C 11.9 °C 1003.0 hPa WNW 17.2 km/h 29.6 km/h 28% 0.0 mm CLR
21:04 32.7 °C 12.3 °C 1003.2 hPa West 17.2 km/h 20.9 km/h 29% 0.0 mm CLR
21:09 32.6 °C 12.3 °C 1003.2 hPa WSW 13.7 km/h 20.9 km/h 29% 0.0 mm CLR
21:14 32.6 °C 12.3 °C 1003.2 hPa SW 13.7 km/h 25.9 km/h 29% 0.0 mm CLR
21:19 32.5 °C 12.2 °C 1003.4 hPa West 14.8 km/h 25.9 km/h 29% 0.0 mm CLR
21:24 32.4 °C 12.1 °C 1003.4 hPa SW 14.8 km/h 16.7 km/h 29% 0.0 mm CLR
21:29 32.4 °C 12.1 °C 1003.4 hPa WNW 12.2 km/h 16.7 km/h 29% 0.0 mm CLR
21:34 32.3 °C 12.0 °C 1003.7 hPa West 12.2 km/h 14.8 km/h 29% 0.0 mm CLR
21:39 32.2 °C 12.4 °C 1003.7 hPa West 11.9 km/h 22.2 km/h 30% 0.0 mm CLR
21:44 32.2 °C 12.4 °C 1003.7 hPa WSW 11.9 km/h 24.1 km/h 30% 0.0 mm CLR
21:49 32.1 °C 12.3 °C 1003.9 hPa WNW 14.0 km/h 23.3 km/h 30% 0.0 mm CLR
21:54 32.1 °C 12.3 °C 1003.9 hPa WSW 14.0 km/h 27.0 km/h 30% 0.0 mm CLR
21:59 32.1 °C 12.3 °C 1003.9 hPa West 17.2 km/h 19.0 km/h 30% 0.0 mm CLR
22:04 32.0 °C 12.3 °C 1004.2 hPa WSW 17.2 km/h 29.6 km/h 30% 0.0 mm CLR
22:09 31.9 °C 12.2 °C 1004.2 hPa West 14.8 km/h 20.4 km/h 30% 0.0 mm CLR
22:14 31.9 °C 12.2 °C 1004.2 hPa West 14.8 km/h 24.1 km/h 30% 0.0 mm CLR
22:19 31.8 °C 12.6 °C 1004.5 hPa West 14.0 km/h 25.9 km/h 31% 0.0 mm CLR
22:24 31.8 °C 12.6 °C 1004.5 hPa WSW 14.0 km/h 20.1 km/h 31% 0.0 mm CLR
22:29 31.7 °C 12.5 °C 1004.5 hPa WNW 14.8 km/h 18.5 km/h 31% 0.0 mm CLR
22:34 31.6 °C 12.9 °C 1004.9 hPa WNW 14.8 km/h 15.6 km/h 32% 0.0 mm CLR
22:39 31.5 °C 12.8 °C 1004.9 hPa WNW 13.0 km/h 18.5 km/h 32% 0.0 mm CLR
22:44 31.4 °C 12.7 °C 1004.9 hPa WSW 13.0 km/h 16.7 km/h 32% 0.0 mm CLR
22:49 31.3 °C 12.6 °C 1005.3 hPa West 11.1 km/h 13.0 km/h 32% 0.0 mm CLR
22:54 31.3 °C 12.6 °C 1005.3 hPa West 11.1 km/h 13.7 km/h 32% 0.0 mm CLR
22:59 31.2 °C 13.0 °C 1005.3 hPa NW 10.3 km/h 18.5 km/h 33% 0.0 mm CLR
23:04 31.1 °C 12.9 °C 1005.5 hPa NW 10.3 km/h 14.8 km/h 33% 0.0 mm CLR
23:09 31.0 °C 12.8 °C 1005.5 hPa NNW 11.1 km/h 22.2 km/h 33% 0.0 mm CLR
23:14 30.8 °C 13.1 °C 1005.5 hPa NW 11.1 km/h 25.9 km/h 34% 0.0 mm CLR
23:19 30.7 °C 13.5 °C 1005.8 hPa NW 15.6 km/h 29.6 km/h 35% 0.0 mm CLR
23:24 30.6 °C 13.4 °C 1005.8 hPa NW 15.6 km/h 24.1 km/h 35% 0.0 mm CLR
23:29 30.4 °C 13.2 °C 1005.8 hPa West 16.1 km/h 22.2 km/h 35% 0.0 mm CLR
23:34 30.3 °C 13.6 °C 1006.0 hPa WNW 16.1 km/h 27.8 km/h 36% 0.0 mm CLR
23:39 30.2 °C 13.5 °C 1006.0 hPa WNW 19.0 km/h 31.5 km/h 36% 0.0 mm CLR
23:44 30.1 °C 13.4 °C 1006.0 hPa WNW 19.0 km/h 24.1 km/h 36% 0.0 mm CLR
23:49 29.9 °C 13.6 °C 1006.1 hPa WNW 20.1 km/h 27.8 km/h 37% 0.0 mm CLR
23:54 29.9 °C 13.6 °C 1006.1 hPa WNW 20.1 km/h 27.8 km/h 37% 0.0 mm CLR
23:59 29.8 °C 13.6 °C 1006.1 hPa WNW 16.1 km/h 22.2 km/h 37% 0.0 mm CLR
Murcia-Puente Tocinos, España
Compliments of Weather Underground - 2.75 mb

La estación de MeteoMurcia.com, publica sus datos en los siguientes proyectos:

Weather Underground PWS IMURCIAP2 Meteoclimatic www.awekas.at

W3Counter
Web Analytics